Time;durP1;ratioP1;P1;durP2;ratioP2;P2;SDS_P1;SDS_P2;PMS_P1;PMS_P2;Temp;Humidity;BMP_temperature;BMP_pressure;BME280_temperature;BME280_humidity;BME280_pressure;Samples;Min_cycle;Max_cycle;Signal;HPM_P1;HPM_P2
2022/01/19 00:01:30;;;;;;;1.53;1.43;;;;;;;10.27;44.24;97531.41;6101535;23;20177;-81
2022/01/19 00:03:59;;;;;;;2.00;1.60;;;;;;;17.52;44.51;98809.41;6125312;23;20575;-82
2022/01/19 00:06:26;;;;;;;1.90;1.70;;;;;;;19.03;44.40;99055.16;6102751;23;20195;-82
2022/01/19 00:08:53;;;;;;;1.60;1.50;;;;;;;17.45;44.35;98832.69;6126060;23;20175;-81
2022/01/19 00:11:32;;;;;;;2.13;1.50;;;;;;;10.98;44.78;97663.13;6102335;23;20163;-90
2022/01/19 00:14:01;;;;;;;1.63;1.53;;;;;;;17.63;44.74;98761.03;6100258;23;20171;-88
2022/01/19 00:16:29;;;;;;;1.60;1.50;;;;;;;13.93;44.63;98104.16;6124673;23;20222;-89
2022/01/19 00:18:56;;;;;;;1.87;1.70;;;;;;;11.95;44.94;97977.25;6100111;23;20175;-89
2022/01/19 00:21:23;;;;;;;2.20;1.70;;;;;;;8.08;44.71;97099.78;6123901;23;20183;-89
2022/01/19 00:23:49;;;;;;;1.70;1.60;;;;;;;10.19;44.63;97540.03;6076078;23;20623;-90
2022/01/19 00:26:16;;;;;;;1.50;1.40;;;;;;;12.76;44.58;97902.47;6124463;23;20195;-89
2022/01/19 00:28:43;;;;;;;1.60;1.50;;;;;;;7.73;44.49;97017.91;6099947;23;20175;-88
2022/01/19 00:31:18;;;;;;;1.77;1.67;;;;;;;13.05;44.36;97960.91;6076126;23;20179;-88
2022/01/19 00:33:52;;;;;;;1.43;1.33;;;;;;;18.60;44.39;98942.84;6102606;23;20167;-83
2022/01/19 00:36:19;;;;;;;1.70;1.60;;;;;;;16.32;44.48;98528.03;6127552;23;20568;-82
2022/01/19 00:38:46;;;;;;;1.77;1.67;;;;;;;8.73;44.31;97195.63;6128090;23;20686;-83
2022/01/19 00:41:12;;;;;;;2.43;1.70;;;;;;;14.59;44.68;98223.38;6125288;23;20194;-81
2022/01/19 00:43:42;;;;;;;1.50;1.40;;;;;;;7.84;44.50;97039.59;6101523;23;20178;-83
2022/01/19 00:46:09;;;;;;;1.60;1.50;;;;;;;17.07;44.66;98651.44;6125510;23;20210;-81
2022/01/19 00:48:36;;;;;;;1.60;1.50;;;;;;;8.13;44.54;97117.63;6126475;23;20167;-82
2022/01/19 00:51:03;;;;;;;1.73;1.50;;;;;;;18.77;44.60;98926.97;6101606;23;20179;-83
2022/01/19 00:53:35;;;;;;;1.80;1.70;;;;;;;18.27;44.49;98831.25;6101834;23;20175;-83
2022/01/19 00:56:02;;;;;;;1.70;1.60;;;;;;;17.64;44.73;98734.84;6124041;23;20253;-81
2022/01/19 00:58:29;;;;;;;1.90;1.50;;;;;;;12.21;44.76;97781.00;6100142;23;20629;-83
2022/01/19 01:00:59;;;;;;;1.70;1.60;;;;;;;15.36;44.69;98323.84;6102454;23;20246;-83
2022/01/19 01:03:26;;;;;;;2.63;1.60;;;;;;;17.18;44.60;98642.84;6124262;23;20253;-83
2022/01/19 01:05:55;;;;;;;1.40;1.30;;;;;;;16.35;44.60;98562.06;6126053;23;20262;-81
2022/01/19 01:08:30;;;;;;;1.67;1.57;;;;;;;10.83;44.78;97580.69;6127522;23;20171;-82
2022/01/19 01:10:58;;;;;;;1.60;1.47;;;;;;;15.74;44.56;98377.94;6102103;23;20242;-83
2022/01/19 01:15:26;;;;;;;1.60;1.50;;;;;;;15.45;44.49;98332.13;6101477;23;20175;-83
2022/01/19 01:16:32;;;;;;;1.90;1.70;;;;;;;8.78;44.38;97164.28;6107603;23;20590;-82
2022/01/19 01:18:59;;;;;;;1.87;1.73;;;;;;;16.10;45.28;98458.91;6104990;23;20611;-81
2022/01/19 01:21:26;;;;;;;1.70;1.60;;;;;;;15.76;44.73;98372.22;6101666;23;20630;-82
2022/01/19 01:23:53;;;;;;;1.70;1.60;;;;;;;15.76;44.70;98361.19;6126517;23;20207;-80
2022/01/19 01:26:19;;;;;;;1.40;1.30;;;;;;;8.41;44.53;97064.72;6128103;23;20195;-83
2022/01/19 01:28:46;;;;;;;1.60;1.50;;;;;;;16.32;44.69;98500.13;6128523;23;20235;-81
2022/01/19 01:31:13;;;;;;;1.53;1.43;;;;;;;14.58;44.79;98138.19;6125714;23;20226;-81
2022/01/19 01:33:41;;;;;;;1.73;1.50;;;;;;;14.78;44.89;98257.50;6101558;23;20173;-84
2022/01/19 01:36:09;;;;;;;1.77;1.67;;;;;;;12.45;44.82;97791.13;6074263;23;20199;-88
2022/01/19 01:38:37;;;;;;;2.03;1.40;;;;;;;12.19;44.59;97848.91;6124947;23;20202;-88
2022/01/19 01:41:12;;;;;;;1.40;1.30;;;;;;;10.56;44.65;97484.16;6099805;23;20172;-90
2022/01/19 01:43:43;;;;;;;1.80;1.70;;;;;;;14.28;44.68;98185.81;6077115;23;20274;-89
2022/01/19 01:47:01;;;;;;;2.27;1.63;;;;;;;7.55;44.25;96994.06;6101539;23;20206;-88
2022/01/19 01:49:17;;;;;;;1.60;1.50;;;;;;;16.73;44.99;98559.53;6093071;23;20190;-88
2022/01/19 01:54:31;;;;;;;1.80;1.70;;;;;;;6.44;44.61;96820.00;6125160;23;20160;-89
2022/01/19 01:56:57;;;;;;;1.70;1.60;;;;;;;17.08;44.81;98561.78;6120071;23;20261;-88
2022/01/19 01:59:24;;;;;;;1.87;1.63;;;;;;;18.55;45.02;98812.72;6101460;23;20167;-81
2022/01/19 02:01:53;;;;;;;1.77;1.50;;;;;;;13.91;44.25;98018.16;6129744;23;20226;-83
2022/01/19 02:04:30;;;;;;;1.50;1.40;;;;;;;18.63;44.59;98803.88;6127628;23;20179;-83
2022/01/19 02:09:46;;;;;;;2.63;1.73;;;;;;;14.26;44.37;98091.28;6128303;23;20697;-81
2022/01/19 02:25:44;;;;;;;1.80;1.70;;;;;;;11.80;43.95;97647.19;6106328;23;20199;-84
2022/01/19 02:36:37;;;;;;;2.73;1.90;;;;;;;17.61;44.50;98548.19;6129105;23;20271;-81
2022/01/19 02:41:52;;;;;;;1.77;1.67;;;;;;;18.89;44.47;98780.84;6127125;23;20226;-81
2022/01/19 02:49:48;;;;;;;1.60;1.50;;;;;;;18.87;44.77;98769.69;6129336;23;20241;-83
2022/01/19 02:52:16;;;;;;;2.00;1.50;;;;;;;13.96;44.68;97903.13;6103350;23;20175;-81
2022/01/19 02:54:43;;;;;;;2.33;1.90;;;;;;;14.08;44.48;97921.63;6102681;23;20175;-81
2022/01/19 02:57:13;;;;;;;1.77;1.67;;;;;;;10.73;44.77;97383.19;6128343;23;20195;-82
2022/01/19 03:10:27;;;;;;;1.77;1.67;;;;;;;18.54;44.70;98706.59;6128035;23;20554;-81
2022/01/19 03:12:54;;;;;;;2.43;1.70;;;;;;;16.07;44.51;98273.63;6079628;23;20189;-83
2022/01/19 03:15:27;;;;;;;2.97;1.80;;;;;;;8.15;44.12;97006.91;6103006;23;20388;-81
2022/01/19 03:17:58;;;;;;;1.90;1.70;;;;;;;13.30;44.01;97835.63;6102837;23;20195;-81
2022/01/19 03:20:39;;;;;;;1.77;1.60;;;;;;;7.81;44.17;96816.81;6104437;23;20174;-84
2022/01/19 03:23:26;;;;;;;2.27;1.60;;;;;;;8.91;44.15;97003.19;6126994;23;20198;-83
2022/01/19 03:25:57;;;;;;;1.50;1.40;;;;;;;13.31;44.18;97798.63;6106733;23;20199;-82
2022/01/19 03:28:24;;;;;;;1.80;1.67;;;;;;;15.30;44.38;98123.41;6128144;23;20194;-81
2022/01/19 03:30:54;;;;;;;1.67;1.57;;;;;;;10.35;44.68;97260.75;6127271;23;20167;-81
2022/01/19 03:33:23;;;;;;;1.90;1.80;;;;;;;12.62;44.77;97677.16;6125789;23;20573;-82
2022/01/19 03:35:52;;;;;;;1.60;1.50;;;;;;;9.16;44.35;97131.94;6101856;23;20265;-89
2022/01/19 03:38:22;;;;;;;1.93;1.60;;;;;;;8.04;44.48;96862.66;6124050;23;20531;-89
2022/01/19 03:40:57;;;;;;;2.80;1.63;;;;;;;7.77;44.46;96820.72;6079423;23;20182;-88
2022/01/19 03:43:24;;;;;;;2.23;1.60;;;;;;;12.05;45.18;97649.75;6125611;23;20208;-88
2022/01/19 03:45:53;;;;;;;1.83;1.60;;;;;;;14.48;44.74;97994.19;6125381;23;20562;-87
2022/01/19 03:48:35;;;;;;;1.50;1.40;;;;;;;8.07;44.43;97044.63;6082275;23;20245;-89
2022/01/19 03:51:06;;;;;;;1.87;1.63;;;;;;;11.25;44.40;97639.06;6111230;23;20175;-89
2022/01/19 03:53:34;;;;;;;1.60;1.50;;;;;;;7.78;44.85;96826.59;6105459;23;20170;-89
2022/01/19 03:56:04;;;;;;;1.80;1.70;;;;;;;7.22;44.78;96735.97;6106689;23;20194;-90
2022/01/19 03:58:31;;;;;;;1.57;1.47;;;;;;;7.65;44.49;96839.84;6129238;23;20499;-88
2022/01/19 04:00:59;;;;;;;1.63;1.53;;;;;;;8.96;44.48;97150.59;6129166;23;20181;-89
2022/01/19 04:06:26;;;;;;;1.70;1.60;;;;;;;17.56;44.80;98547.06;6089513;23;20206;-82
2022/01/19 04:08:55;;;;;;;1.60;1.50;;;;;;;17.40;44.67;98506.19;6090630;23;20177;-81
2022/01/19 04:11:26;;;;;;;1.77;1.67;;;;;;;18.82;44.67;98749.81;6084027;23;20622;-81
2022/01/19 04:16:25;;;;;;;1.90;1.77;;;;;;;13.82;44.54;97974.63;6132973;23;20195;-82
2022/01/19 04:19:00;;;;;;;1.70;1.60;;;;;;;14.52;44.49;97985.16;6107050;23;20191;-83
2022/01/19 04:21:26;;;;;;;1.73;1.63;;;;;;;12.73;44.61;97657.69;6108323;23;20177;-82
2022/01/19 04:23:53;;;;;;;1.63;1.50;;;;;;;18.09;45.00;98604.56;6157300;23;20224;-81
2022/01/19 04:26:20;;;;;;;2.23;1.63;;;;;;;18.87;44.63;98725.50;6156127;23;20194;-83
2022/01/19 04:28:46;;;;;;;1.70;1.60;;;;;;;18.80;44.59;98731.03;6130024;23;20182;-81
2022/01/19 04:31:13;;;;;;;1.87;1.77;;;;;;;12.15;44.34;97569.00;6084010;23;20162;-81
2022/01/19 04:33:43;;;;;;;1.50;1.40;;;;;;;14.74;44.65;98045.59;6130144;23;20178;-83
2022/01/19 04:36:36;;;;;;;1.60;1.50;;;;;;;12.00;44.57;97560.41;6131553;23;20221;-82
2022/01/19 04:43:43;;;;;;;1.50;1.40;;;;;;;7.56;44.23;96760.84;6131904;23;20194;-81
2022/01/19 05:06:25;;;;;;;1.50;1.40;;;;;;;15.26;44.08;98073.38;6130568;23;20190;-83
2022/01/19 05:09:02;;;;;;;2.40;1.80;;;;;;;10.23;44.16;97240.72;6130856;23;20230;-83
2022/01/19 05:14:16;;;;;;;2.10;1.70;;;;;;;17.85;44.44;98531.88;6135162;23;20185;-82
2022/01/19 05:16:45;;;;;;;1.70;1.60;;;;;;;11.97;44.58;97583.78;6155500;23;20530;-83
2022/01/19 05:19:14;;;;;;;1.70;1.60;;;;;;;16.36;44.41;98306.75;6106756;23;20220;-81
2022/01/19 05:21:41;;;;;;;1.70;1.60;;;;;;;18.85;44.38;98706.69;6130132;23;20194;-84
2022/01/19 05:24:08;;;;;;;1.87;1.77;;;;;;;17.50;44.19;98509.41;6156195;23;20529;-82
2022/01/19 05:26:36;;;;;;;2.17;1.83;;;;;;;16.82;44.21;98346.88;6130660;23;20252;-82
2022/01/19 05:29:03;;;;;;;2.20;1.80;;;;;;;17.73;44.33;98564.19;6083537;23;20170;-82
2022/01/19 05:31:30;;;;;;;1.70;1.60;;;;;;;16.23;44.24;98229.03;6082744;23;20185;-81
2022/01/19 05:33:56;;;;;;;1.60;1.50;;;;;;;15.50;44.14;98131.53;6153812;23;20376;-83
2022/01/19 05:36:23;;;;;;;2.07;1.83;;;;;;;18.87;44.14;98684.75;6104931;23;20191;-82
2022/01/19 05:38:52;;;;;;;2.03;1.80;;;;;;;18.88;44.36;98691.59;6131019;23;20194;-83
2022/01/19 05:41:22;;;;;;;3.00;1.67;;;;;;;18.88;43.99;98686.50;6085768;23;20194;-84
2022/01/19 05:43:49;;;;;;;2.10;1.80;;;;;;;16.95;44.11;98341.75;6106398;23;20205;-82
2022/01/19 05:46:15;;;;;;;1.93;1.73;;;;;;;18.35;44.36;98578.97;6122892;23;20258;-86
2022/01/19 05:48:42;;;;;;;1.70;1.60;;;;;;;18.61;44.40;98618.69;6098240;23;20462;-88
2022/01/19 05:51:09;;;;;;;1.90;1.70;;;;;;;18.50;44.51;98595.16;6073894;23;20254;-88
2022/01/19 05:53:36;;;;;;;1.80;1.60;;;;;;;18.69;44.43;98618.38;6096905;23;20222;-88
2022/01/19 05:56:03;;;;;;;1.47;1.37;;;;;;;18.68;44.40;98620.81;6096423;23;20194;-89
2022/01/19 05:58:30;;;;;;;1.87;1.77;;;;;;;18.66;44.34;98617.31;6097682;23;20571;-89
2022/01/19 06:00:56;;;;;;;1.60;1.50;;;;;;;18.64;44.56;98613.78;6074428;23;20210;-89
2022/01/19 06:03:23;;;;;;;1.50;1.40;;;;;;;18.25;44.33;98535.97;6073686;23;20179;-89
2022/01/19 06:05:50;;;;;;;2.03;1.80;;;;;;;18.65;44.14;98613.00;6073712;23;20202;-90
2022/01/19 06:10:44;;;;;;;1.80;1.70;;;;;;;18.75;44.08;98592.38;6096953;23;20174;-89
2022/01/19 06:13:15;;;;;;;1.93;1.70;;;;;;;18.63;44.04;98576.38;6073424;23;20182;-89
2022/01/19 06:15:42;;;;;;;1.97;1.60;;;;;;;18.48;44.20;98550.94;6073564;23;20270;-89
2022/01/19 06:18:09;;;;;;;1.90;1.70;;;;;;;18.81;44.39;98595.25;6070316;23;20631;-90
2022/01/19 06:20:35;;;;;;;1.50;1.40;;;;;;;18.73;44.09;98574.44;6073473;23;20206;-90
2022/01/19 06:23:02;;;;;;;2.90;1.80;;;;;;;18.57;44.07;98525.13;6073710;23;20178;-88
2022/01/19 06:25:29;;;;;;;1.70;1.60;;;;;;;18.73;44.19;98553.19;6072238;23;20561;-89
2022/01/19 06:27:56;;;;;;;2.00;1.80;;;;;;;18.71;43.97;98540.38;6098216;23;20179;-89
2022/01/19 06:30:22;;;;;;;3.03;1.90;;;;;;;18.64;44.17;98524.66;6097329;23;20205;-90
2022/01/19 06:32:49;;;;;;;1.80;1.70;;;;;;;18.72;44.03;98526.88;6097181;23;20167;-89
2022/01/19 06:35:15;;;;;;;1.87;1.77;;;;;;;18.50;43.84;98479.75;6073461;23;20175;-90
2022/01/19 06:37:42;;;;;;;1.70;1.60;;;;;;;18.91;44.01;98550.00;6073367;23;20206;-90
2022/01/19 06:40:10;;;;;;;1.87;1.70;;;;;;;18.57;43.97;98489.47;6073337;23;20176;-90
2022/01/19 06:42:36;;;;;;;1.73;1.63;;;;;;;18.56;43.76;98482.66;6073831;23;20179;-89
2022/01/19 06:45:04;;;;;;;1.80;1.70;;;;;;;18.98;44.06;98554.66;6073421;23;20175;-90
2022/01/19 06:47:30;;;;;;;2.10;1.83;;;;;;;18.75;44.22;98521.94;6121375;23;20203;-90
2022/01/19 06:49:57;;;;;;;1.63;1.53;;;;;;;18.64;43.74;98504.28;6097420;23;20698;-89
2022/01/19 06:52:24;;;;;;;1.77;1.67;;;;;;;18.83;44.13;98524.91;6073495;23;20202;-89
2022/01/19 06:54:50;;;;;;;1.80;1.70;;;;;;;18.92;43.92;98540.72;6073516;23;20567;-89
2022/01/19 06:57:17;;;;;;;1.97;1.77;;;;;;;18.60;43.92;98482.00;6097950;23;20230;-90
2022/01/19 06:59:44;;;;;;;1.90;1.80;;;;;;;19.01;44.15;98564.16;6099171;23;20191;-89
2022/01/19 07:02:10;;;;;;;2.17;1.80;;;;;;;18.92;43.85;98538.16;6098938;23;20342;-90
2022/01/19 07:04:39;;;;;;;1.97;1.87;;;;;;;18.86;43.72;98520.00;6099064;23;20211;-90
2022/01/19 07:07:05;;;;;;;1.90;1.80;;;;;;;18.27;44.17;98442.81;6076057;23;20203;-90
2022/01/19 07:09:32;;;;;;;6.70;2.63;;;;;;;18.81;41.90;98523.94;6076160;23;20179;-88
2022/01/19 07:11:59;;;;;;;4.77;3.30;;;;;;;18.82;39.95;98525.69;6100204;23;20177;-89
2022/01/19 07:14:25;;;;;;;6.23;3.63;;;;;;;18.68;39.88;98509.66;6075535;23;20681;-89
2022/01/19 07:16:52;;;;;;;3.60;3.13;;;;;;;18.32;39.84;98450.69;6075964;23;20199;-90
2022/01/19 07:19:18;;;;;;;3.97;3.23;;;;;;;18.71;40.73;98522.56;6075790;23;20210;-90
2022/01/19 07:21:45;;;;;;;7.50;3.30;;;;;;;18.70;40.45;98525.00;6098191;23;20175;-89
2022/01/19 07:24:12;;;;;;;6.17;3.30;;;;;;;18.72;40.78;98543.81;6075258;23;20190;-91
2022/01/19 07:26:39;;;;;;;4.70;3.10;;;;;;;18.85;40.92;98566.63;6076057;23;20233;-90
2022/01/19 07:29:05;;;;;;;4.40;2.80;;;;;;;18.25;41.31;98459.63;6099522;23;20207;-90
2022/01/19 07:31:32;;;;;;;6.53;2.70;;;;;;;18.77;41.74;98555.13;6099712;23;20213;-89
2022/01/19 07:33:58;;;;;;;3.47;2.70;;;;;;;18.75;41.49;98554.16;6075908;23;20179;-92
2022/01/19 07:36:25;;;;;;;3.63;2.27;;;;;;;18.72;41.86;98546.34;6075870;23;20201;-89
2022/01/19 07:38:51;;;;;;;3.23;2.50;;;;;;;17.99;42.50;98416.56;6075842;23;20198;-89
2022/01/19 07:41:18;;;;;;;3.87;2.70;;;;;;;18.79;42.35;98551.00;6099973;23;20213;-89
2022/01/19 07:43:45;;;;;;;4.33;2.70;;;;;;;18.92;42.50;98584.00;6099560;23;20709;-88
2022/01/19 07:46:11;;;;;;;3.00;2.50;;;;;;;18.80;42.42;98547.66;6098158;23;20213;-89
2022/01/19 07:48:38;;;;;;;3.73;2.60;;;;;;;18.73;42.56;98541.34;6075499;23;20171;-90
2022/01/19 07:51:07;;;;;;;2.80;2.50;;;;;;;18.73;42.69;98533.72;6099916;23;20175;-90
2022/01/19 07:53:33;;;;;;;3.43;2.43;;;;;;;18.49;42.78;98491.59;6098830;23;20160;-88
2022/01/19 07:56:00;;;;;;;4.37;2.60;;;;;;;18.90;42.96;98565.22;6098990;23;20195;-89
2022/01/19 07:58:26;;;;;;;3.03;2.60;;;;;;;18.80;42.65;98543.44;6122831;23;20612;-89
2022/01/19 08:00:53;;;;;;;3.53;2.50;;;;;;;18.79;42.94;98531.50;6099549;23;20531;-89
2022/01/19 08:03:20;;;;;;;3.70;2.57;;;;;;;18.99;42.97;98576.81;6099773;23;20244;-89
2022/01/19 08:05:46;;;;;;;2.87;2.43;;;;;;;18.84;43.15;98534.31;6099738;23;20206;-91
2022/01/19 08:08:13;;;;;;;2.90;2.40;;;;;;;18.82;43.10;98530.78;6100279;23;20214;-90
2022/01/19 08:10:42;;;;;;;2.60;2.10;;;;;;;18.77;42.84;98519.50;6075377;23;20214;-89
2022/01/19 08:13:09;;;;;;;6.17;2.57;;;;;;;18.44;42.86;98456.50;6100952;23;20206;-90
2022/01/19 08:15:36;;;;;;;2.77;2.43;;;;;;;18.84;43.13;98535.19;6075402;23;20651;-90
2022/01/19 08:18:02;;;;;;;2.83;2.30;;;;;;;18.74;42.73;98530.34;6100252;23;20625;-89
2022/01/19 08:20:29;;;;;;;3.33;2.27;;;;;;;18.71;42.94;98504.72;6076223;23;20571;-89
2022/01/19 08:22:55;;;;;;;2.80;2.33;;;;;;;18.52;42.84;98467.97;6075663;23;20180;-90
2022/01/19 08:25:22;;;;;;;4.57;2.40;;;;;;;18.84;42.86;98509.72;6099041;23;20213;-89
2022/01/19 08:27:49;;;;;;;4.00;2.50;;;;;;;18.87;43.13;98512.44;6075785;23;20209;-89
2022/01/19 08:30:15;;;;;;;2.40;2.20;;;;;;;18.66;42.85;98478.16;6099337;23;20170;-89
2022/01/19 08:32:44;;;;;;;3.33;2.40;;;;;;;18.40;43.28;98430.00;6076592;23;20599;-89
2022/01/19 08:35:11;;;;;;;2.53;2.30;;;;;;;18.65;43.12;98476.38;6075179;23;20182;-89
2022/01/19 08:37:38;;;;;;;4.40;3.10;;;;;;;18.64;42.09;98471.19;6099556;23;20218;-90
2022/01/19 08:40:05;;;;;;;4.30;3.27;;;;;;;18.74;41.88;98483.66;6099153;23;20215;-90
2022/01/19 08:42:33;;;;;;;3.37;2.60;;;;;;;18.73;41.88;98479.34;6123303;23;20666;-90
2022/01/19 08:45:05;;;;;;;3.63;2.60;;;;;;;18.77;41.99;98486.38;6096555;23;20202;-87
2022/01/19 08:47:32;;;;;;;4.90;2.83;;;;;;;18.69;42.25;98477.44;6121657;23;20257;-90
2022/01/19 08:50:04;;;;;;;3.83;2.90;;;;;;;18.55;42.58;98441.03;6100114;23;20179;-90
2022/01/19 08:52:30;;;;;;;3.03;2.60;;;;;;;18.88;42.72;98498.00;6098607;23;20635;-89
2022/01/19 08:54:57;;;;;;;3.03;2.50;;;;;;;18.54;42.78;98435.84;6098756;23;20175;-89
2022/01/19 08:57:24;;;;;;;3.57;2.47;;;;;;;18.78;42.87;98476.28;6123414;23;20223;-90
2022/01/19 08:59:51;;;;;;;3.77;2.57;;;;;;;18.74;43.03;98461.59;6098393;23;20314;-89
2022/01/19 09:02:18;;;;;;;2.77;2.47;;;;;;;18.42;42.57;98414.81;6098865;23;20829;-89
2022/01/19 09:04:45;;;;;;;2.93;2.60;;;;;;;18.84;42.87;98476.63;6097968;23;20182;-90
2022/01/19 09:07:12;;;;;;;2.90;2.50;;;;;;;18.71;42.93;98458.88;6074785;23;20272;-89
2022/01/19 09:09:39;;;;;;;2.83;2.20;;;;;;;18.72;42.95;98460.66;6074746;23;20202;-89
2022/01/19 09:12:06;;;;;;;3.37;2.80;;;;;;;18.77;43.05;98461.78;6097552;23;20258;-90
2022/01/19 09:14:33;;;;;;;2.90;2.60;;;;;;;18.87;42.93;98483.53;6094605;23;20643;-90
2022/01/19 09:17:01;;;;;;;3.33;2.47;;;;;;;18.69;42.91;98445.22;6098480;23;20191;-90
2022/01/19 09:19:27;;;;;;;2.80;2.53;;;;;;;18.71;43.03;98451.25;6098202;23;20195;-90
2022/01/19 09:21:55;;;;;;;2.93;2.63;;;;;;;18.93;43.11;98494.06;6074474;23;20544;-89
2022/01/19 09:24:22;;;;;;;3.13;2.80;;;;;;;18.35;42.83;98387.25;6098337;23;20254;-89
2022/01/19 09:26:53;;;;;;;4.97;2.80;;;;;;;18.79;42.86;98464.41;6100053;23;20246;-92
2022/01/19 09:29:20;;;;;;;2.87;2.50;;;;;;;18.82;42.96;98462.03;6097967;23;20191;-88
2022/01/19 09:31:46;;;;;;;2.50;2.30;;;;;;;18.86;42.95;98467.38;6074375;23;20198;-89
2022/01/19 09:34:20;;;;;;;2.67;2.47;;;;;;;19.02;43.09;98497.09;6097042;23;20496;-84
2022/01/19 09:36:47;;;;;;;2.23;2.03;;;;;;;18.78;43.41;98449.94;6098778;23;20223;-89
2022/01/19 09:39:19;;;;;;;3.10;2.33;;;;;;;18.98;43.38;98479.91;6075181;23;20199;-89
2022/01/19 09:41:48;;;;;;;3.53;2.40;;;;;;;18.83;43.29;98456.16;6123309;23;20175;-89
2022/01/19 09:44:17;;;;;;;2.43;2.10;;;;;;;18.86;43.51;98457.19;6075592;23;20179;-88
2022/01/19 09:46:44;;;;;;;3.47;2.33;;;;;;;18.82;43.28;98452.72;6075188;23;20217;-88
2022/01/19 09:49:12;;;;;;;3.17;2.70;;;;;;;18.75;43.16;98431.94;6099097;23;20203;-89
2022/01/19 09:51:40;;;;;;;2.47;2.07;;;;;;;18.78;43.50;98432.09;6075540;23;20225;-89
2022/01/19 09:54:07;;;;;;;3.30;2.40;;;;;;;18.46;43.42;98376.88;6074098;23;20178;-88
2022/01/19 09:56:34;;;;;;;2.67;2.37;;;;;;;18.69;43.61;98407.03;6098515;23;20276;-88
2022/01/19 09:59:00;;;;;;;2.40;2.20;;;;;;;18.41;43.42;98357.94;6073764;23;20209;-88
2022/01/19 10:01:27;;;;;;;2.83;2.33;;;;;;;18.32;42.98;98338.72;6098506;23;20234;-89
2022/01/19 10:03:53;;;;;;;2.90;2.30;;;;;;;18.24;43.77;98330.69;6097734;23;20181;-89
2022/01/19 10:06:22;;;;;;;2.93;2.40;;;;;;;18.92;43.82;98459.19;6097906;23;20504;-89
2022/01/19 10:08:51;;;;;;;2.57;2.27;;;;;;;18.47;43.69;98359.97;6098177;23;20623;-88
2022/01/19 10:19:34;;;;;;;2.77;2.30;;;;;;;18.87;44.05;98418.22;6121944;23;20210;-89
2022/01/19 10:22:11;;;;;;;3.30;2.40;;;;;;;18.87;44.03;98414.78;6122739;23;20195;-89
2022/01/19 10:24:51;;;;;;;2.67;2.10;;;;;;;18.86;43.90;98411.34;6098319;23;20238;-90
2022/01/19 10:27:20;;;;;;;2.40;2.17;;;;;;;18.86;44.15;98407.94;6098651;23;20202;-89
2022/01/19 10:29:48;;;;;;;2.77;2.47;;;;;;;18.26;44.05;98300.22;6123007;23;20650;-90
2022/01/19 10:32:15;;;;;;;2.80;2.50;;;;;;;18.35;44.16;98314.31;6075577;23;20253;-90
2022/01/19 10:34:41;;;;;;;2.60;2.40;;;;;;;18.61;43.96;98361.56;6075103;23;20851;-89
2022/01/19 10:37:08;;;;;;;2.43;2.23;;;;;;;18.55;43.60;98348.50;6076008;23;20199;-90
2022/01/19 10:39:39;;;;;;;2.67;2.27;;;;;;;18.66;44.23;98367.78;6099615;23;20194;-88
2022/01/19 10:42:10;;;;;;;2.43;2.10;;;;;;;18.61;43.92;98354.81;6099574;23;20226;-90
2022/01/19 10:44:42;;;;;;;3.03;2.30;;;;;;;18.50;44.16;98335.53;6076046;23;20568;-89
2022/01/19 10:47:43;;;;;;;4.07;2.07;;;;;;;18.82;44.14;98383.97;6104178;23;20203;-87
2022/01/19 10:50:25;;;;;;;3.93;2.30;;;;;;;18.57;44.19;98335.09;6124003;23;20671;-88
2022/01/19 10:52:53;;;;;;;2.50;2.30;;;;;;;18.65;44.06;98351.63;6101716;23;20156;-87
2022/01/19 10:55:19;;;;;;;3.40;2.30;;;;;;;18.82;44.25;98375.44;6098534;23;20182;-88
2022/01/19 10:57:47;;;;;;;2.23;2.03;;;;;;;18.64;44.29;98339.69;6124696;23;20222;-88
2022/01/19 11:00:24;;;;;;;2.63;2.27;;;;;;;18.80;44.11;98365.16;6076238;23;20658;-90
2022/01/19 11:02:53;;;;;;;3.30;2.63;;;;;;;18.56;44.32;98337.53;6100087;23;20210;-88
2022/01/19 11:05:59;;;;;;;2.87;2.40;;;;;;;18.70;44.28;98349.31;6099562;23;20190;-88
2022/01/19 11:08:26;;;;;;;2.80;2.30;;;;;;;18.45;44.18;98305.53;6124085;23;20820;-88
2022/01/19 11:10:54;;;;;;;2.93;2.63;;;;;;;18.53;43.92;98306.84;6075999;23;20184;-87
2022/01/19 11:13:28;;;;;;;3.03;2.60;;;;;;;18.65;44.14;98330.41;6076067;23;20179;-87
2022/01/19 11:15:56;;;;;;;2.87;2.57;;;;;;;18.57;43.97;98307.09;6100417;23;20253;-88
2022/01/19 11:18:25;;;;;;;3.03;2.73;;;;;;;18.56;43.92;98307.84;6075892;23;20175;-88
2022/01/19 11:20:52;;;;;;;2.60;2.40;;;;;;;18.47;44.10;98278.50;6075744;23;20205;-87
2022/01/19 11:23:28;;;;;;;3.20;2.60;;;;;;;18.78;44.17;98328.59;6098230;23;20179;-87
2022/01/19 11:26:07;;;;;;;2.60;2.40;;;;;;;18.63;44.16;98302.31;6123702;23;20229;-88
2022/01/19 11:28:38;;;;;;;2.90;2.60;;;;;;;18.78;44.20;98320.94;6099289;23;20191;-88
2022/01/19 11:31:12;;;;;;;3.73;2.93;;;;;;;18.79;44.16;98319.25;6123972;23;20175;-88
2022/01/19 11:33:59;;;;;;;2.40;2.20;;;;;;;18.69;44.15;98292.44;6099199;23;20179;-88
2022/01/19 11:36:31;;;;;;;2.73;2.53;;;;;;;18.30;44.07;98229.25;6103250;23;20195;-88
2022/01/19 11:39:20;;;;;;;2.60;2.40;;;;;;;18.78;43.98;98300.56;6098817;23;20211;-88
2022/01/19 11:41:59;;;;;;;3.43;2.27;;;;;;;18.58;44.15;98265.53;6099350;23;20167;-87
2022/01/19 11:44:32;;;;;;;3.10;2.73;;;;;;;18.78;44.13;98297.13;6122774;23;20191;-88
2022/01/19 11:47:08;;;;;;;3.00;2.67;;;;;;;18.78;44.32;98295.47;6122724;23;20258;-86
2022/01/19 11:49:58;;;;;;;2.40;2.20;;;;;;;18.78;44.17;98289.50;6123287;23;20202;-80
2022/01/19 11:52:51;;;;;;;2.77;2.53;;;;;;;18.77;44.18;98285.22;6097948;23;20163;-83
2022/01/19 11:55:21;;;;;;;10.60;4.60;;;;;;;18.77;43.81;98269.94;6121975;23;20665;-82
2022/01/19 11:57:50;;;;;;;6.80;4.73;;;;;;;18.00;44.04;98133.50;6120915;23;20171;-78
2022/01/19 12:00:17;;;;;;;5.80;4.63;;;;;;;18.76;43.87;98260.53;6092330;23;20292;-78
2022/01/19 12:02:49;;;;;;;5.50;4.10;;;;;;;18.75;43.72;98256.22;6095066;23;20186;-78
2022/01/19 12:05:37;;;;;;;5.93;4.20;;;;;;;18.47;43.93;98202.16;6093147;23;20176;-79
2022/01/19 12:08:28;;;;;;;6.53;4.20;;;;;;;18.23;43.78;98154.25;6093683;23;20180;-78
2022/01/19 12:10:58;;;;;;;4.33;3.57;;;;;;;17.79;44.05;98069.66;6092741;23;20199;-81
2022/01/19 12:13:57;;;;;;;11.60;7.77;;;;;;;18.02;42.35;98106.47;6068187;23;20167;-82
2022/01/19 12:19:08;;;;;;;9.20;8.20;;;;;;;18.74;41.32;98212.06;6093714;23;20190;-78
2022/01/19 12:21:34;;;;;;;9.13;8.07;;;;;;;18.73;41.42;98206.91;6093643;23;20274;-79
2022/01/19 12:24:36;;;;;;;10.30;8.30;;;;;;;16.74;41.94;97850.63;6092993;23;20534;-80
2022/01/19 12:27:15;;;;;;;9.33;7.03;;;;;;;18.72;42.25;98203.50;6068422;23;20164;-79
2022/01/19 12:29:46;;;;;;;8.03;7.23;;;;;;;18.71;42.34;98199.19;6091286;23;20232;-79
2022/01/19 12:32:15;;;;;;;9.13;7.57;;;;;;;18.71;42.61;98188.16;6091754;23;20562;-80
2022/01/19 12:34:51;;;;;;;7.70;6.77;;;;;;;18.39;42.93;98125.41;6091025;23;20568;-79
2022/01/19 12:37:24;;;;;;;7.17;6.47;;;;;;;18.70;42.98;98174.53;6114695;23;20163;-79
2022/01/19 12:39:51;;;;;;;7.03;6.17;;;;;;;15.59;43.27;97630.53;6092848;23;20551;-79
2022/01/19 12:42:22;;;;;;;6.77;5.80;;;;;;;16.32;43.31;97752.78;6092001;23;20164;-80
2022/01/19 12:44:49;;;;;;;7.80;6.03;;;;;;;18.70;43.17;98168.53;6091366;23;20198;-76
2022/01/19 12:47:25;;;;;;;7.23;6.17;;;;;;;18.70;43.12;98166.88;6091369;23;20651;-80
2022/01/19 12:49:52;;;;;;;6.13;5.53;;;;;;;18.70;42.99;98164.34;6091832;23;20258;-80
2022/01/19 12:52:18;;;;;;;5.37;4.87;;;;;;;18.06;43.25;98044.81;6092982;23;20180;-81
2022/01/19 12:54:45;;;;;;;6.60;5.10;;;;;;;17.47;43.31;97939.19;6067496;23;20189;-79
2022/01/19 12:57:15;;;;;;;6.47;5.40;;;;;;;18.70;43.43;98143.97;6091275;23;20239;-80
2022/01/19 12:59:43;;;;;;;6.40;5.60;;;;;;;18.10;43.69;98036.53;6092065;23;20250;-78
2022/01/19 13:02:13;;;;;;;5.10;4.70;;;;;;;18.35;43.34;98071.72;6092306;23;20496;-78
2022/01/19 13:04:41;;;;;;;4.80;4.40;;;;;;;18.71;43.43;98137.22;6070144;23;20615;-81
2022/01/19 13:07:26;;;;;;;5.20;4.80;;;;;;;16.94;43.64;97829.72;6099583;23;20180;-79
2022/01/19 13:10:19;;;;;;;5.30;4.80;;;;;;;17.45;43.65;97911.16;6115784;23;20199;-79
2022/01/19 13:12:55;;;;;;;4.80;4.30;;;;;;;18.38;43.66;98067.66;6070878;23;20168;-80
2022/01/19 13:15:22;;;;;;;4.93;4.43;;;;;;;17.63;43.79;97932.41;6069541;23;20171;-82
2022/01/19 13:17:52;;;;;;;5.47;4.47;;;;;;;18.01;43.76;98000.47;6066284;23;20518;-81
2022/01/19 13:20:20;;;;;;;4.67;4.20;;;;;;;17.85;43.55;97983.53;6067834;23;20263;-81